Airfield :
LOGIN :

Register | Disclaimer

   EN    FR    IT 

 










Legend :    VFR   Marginal VFR   IFR   Intensive IFR   Very Intensive IFR
Visi :
Ceiling :
>= 8 km
>= 3000ft
5 to 8 km
1000 to 3000 ft
1500m to 5 km
500 to 1000 ft
800 to 1500m
200 to 500 ft
< 800m
< 200 ft
Symbols :   Thunderstorms  Fog  Heavy snow  Heavy precipitations  Wind > 20 kt
SIGMETs :     Misc.  Thunderstorms  Icing  Turbulence  Mountain Waves  Volcanic Ashes






- Airport Elevation : 479 ft
- IATA code : DOL


LFRG - Deauville

CURRENT METAR :
  • 160500Z AUTO 19006KT 9999 SCT008/// BKN016/// BKN027/// ///TCU 09/09 Q1002

EXPIRED METARs :
  • 160430Z AUTO 20004KT 170V230 9999 FEW005/// BKN028/// BKN045/// ///TCU 09/09 Q1002
  • 160400Z AUTO 20005KT 9999 SCT006/// SCT014/// BKN026/// ///TCU 09/08 Q1002
  • 160330Z AUTO 20004KT 170V230 6000 -RA FEW017/// SCT026/// BKN031/// ///TCU 09/08 Q1002
  • 160300Z AUTO 22007KT 190V250 9999 -RA BKN007/// BKN011/// BKN024/// ///TCU 09/08 Q1003
  • 160230Z AUTO 19007KT 9999 DZ FEW013/// SCT019/// BKN030/// ///TCU 09/09 Q1003

Expired Forecast.
ATIS : +33 2 31 65 65 36



MET'MAP, your aeronautical weather chart ! - Copyright ORBIFLY December 2007 - Disclaimer

ORBIFLY MET'MAP TEAM :

Programming & Development : Alexandra Zaïnal
Concept & original design : Baudouin d'Aumeries
Assistance for programming : Marc-Olivier Méhu
Technical & hardware support : Manuel Goepfert

Contact : metmap@orbifly.com




SOURCES & CREDITS :

   NOAA